createdAt,value
2023-04-18T00:00:43.973Z,503.00
2023-04-18T00:01:43.996Z,503.00
2023-04-18T00:02:44.249Z,508.00
2023-04-18T00:03:44.270Z,507.00
2023-04-18T00:04:44.199Z,512.00
2023-04-18T00:05:44.255Z,505.00
2023-04-18T00:06:44.238Z,503.00
2023-04-18T00:07:44.284Z,500.00
2023-04-18T00:08:44.295Z,503.00
2023-04-18T00:09:44.514Z,508.00
2023-04-18T00:10:44.358Z,507.00
2023-04-18T00:11:44.431Z,500.00
2023-04-18T00:12:44.493Z,504.00
2023-04-18T00:13:44.573Z,507.00
2023-04-18T00:14:44.590Z,502.00
2023-04-18T00:15:44.647Z,507.00
2023-04-18T00:16:44.756Z,506.00
2023-04-18T00:17:44.794Z,500.00
2023-04-18T00:18:44.761Z,507.00
2023-04-18T00:19:44.788Z,506.00
2023-04-18T00:20:44.886Z,512.00
2023-04-18T00:21:45.226Z,505.00
2023-04-18T00:22:44.915Z,503.00
2023-04-18T00:23:44.953Z,509.00
2023-04-18T00:24:45.036Z,506.00
2023-04-18T00:25:45.063Z,508.00
2023-04-18T00:26:45.102Z,502.00
2023-04-18T00:27:45.173Z,510.00
2023-04-18T00:28:45.176Z,506.00
2023-04-18T00:29:45.248Z,510.00
2023-04-18T00:30:45.337Z,504.00
2023-04-18T00:31:45.319Z,508.00
2023-04-18T00:32:45.418Z,509.00
2023-04-18T00:33:45.430Z,504.00
2023-04-18T00:34:45.459Z,503.00
2023-04-18T00:35:45.507Z,506.00
2023-04-18T00:36:45.564Z,502.00
2023-04-18T00:37:45.614Z,509.00
2023-04-18T00:38:45.649Z,505.00
2023-04-18T00:39:45.695Z,505.00
2023-04-18T00:40:45.781Z,502.00
2023-04-18T00:41:45.806Z,505.00
2023-04-18T00:42:45.851Z,504.00
2023-04-18T00:43:45.934Z,505.00
2023-04-18T00:44:45.929Z,505.00
2023-04-18T00:45:46.010Z,506.00
2023-04-18T00:46:46.010Z,503.00
2023-04-18T00:47:46.337Z,503.00
2023-04-18T00:48:46.124Z,503.00
2023-04-18T00:49:46.168Z,503.00
2023-04-18T00:50:46.310Z,507.00
2023-04-18T00:51:46.273Z,508.00
2023-04-18T00:52:46.293Z,506.00
2023-04-18T00:53:46.373Z,503.00
2023-04-18T00:54:46.386Z,508.00
2023-04-18T00:55:46.462Z,508.00
2023-04-18T00:56:46.484Z,510.00
2023-04-18T00:57:46.533Z,500.00
2023-04-18T00:58:46.584Z,511.00
2023-04-18T00:59:46.658Z,505.00
2023-04-18T01:00:46.643Z,504.00
2023-04-18T01:01:46.877Z,507.00
2023-04-18T01:02:46.858Z,508.00
2023-04-18T01:03:46.908Z,506.00
2023-04-18T01:04:46.870Z,501.00
2023-04-18T01:05:46.916Z,505.00
2023-04-18T01:06:46.930Z,504.00
2023-04-18T01:07:47.003Z,505.00
2023-04-18T01:08:47.035Z,509.00
2023-04-18T01:09:47.081Z,508.00
2023-04-18T01:10:47.138Z,504.00
2023-04-18T01:11:47.178Z,506.00
2023-04-18T01:12:47.267Z,505.00
2023-04-18T01:13:47.278Z,512.00
2023-04-18T01:14:47.303Z,511.00
2023-04-18T01:15:47.415Z,508.00
2023-04-18T01:16:47.401Z,501.00
2023-04-18T01:17:47.495Z,511.00
2023-04-18T01:18:47.527Z,502.00
2023-04-18T01:19:47.518Z,503.00
2023-04-18T01:20:47.587Z,503.00
2023-04-18T01:21:47.672Z,505.00
2023-04-18T01:22:47.660Z,508.00
2023-04-18T01:23:47.714Z,503.00
2023-04-18T01:24:47.791Z,505.00
2023-04-18T01:25:47.785Z,499.00
2023-04-18T01:26:47.834Z,506.00
2023-04-18T01:27:47.871Z,505.00
2023-04-18T01:28:47.933Z,508.00
2023-04-18T01:29:47.965Z,507.00
2023-04-18T01:30:47.998Z,510.00
2023-04-18T01:31:48.133Z,510.00
2023-04-18T01:32:48.117Z,503.00
2023-04-18T01:33:48.136Z,513.00
2023-04-18T01:34:48.186Z,505.00
2023-04-18T01:35:48.243Z,507.00
2023-04-18T01:36:48.267Z,502.00
2023-04-18T01:37:48.281Z,506.00
2023-04-18T01:38:48.321Z,503.00
2023-04-18T01:39:48.392Z,503.00
2023-04-18T01:40:48.433Z,503.00
2023-04-18T01:41:48.490Z,505.00
2023-04-18T01:42:48.543Z,505.00
2023-04-18T01:43:48.576Z,502.00
2023-04-18T01:44:48.580Z,509.00
2023-04-18T01:45:48.657Z,508.00
2023-04-18T01:46:48.762Z,508.00
2023-04-18T01:47:48.821Z,504.00
2023-04-18T01:48:48.790Z,505.00
2023-04-18T01:49:48.828Z,508.00
2023-04-18T01:50:48.861Z,511.00
2023-04-18T01:51:48.911Z,512.00
2023-04-18T01:52:48.928Z,503.00
2023-04-18T01:53:48.977Z,508.00
2023-04-18T01:54:49.027Z,502.00
2023-04-18T01:55:49.098Z,505.00
2023-04-18T01:56:49.106Z,509.00
2023-04-18T01:57:49.164Z,511.00
2023-04-18T01:58:49.189Z,513.00
2023-04-18T01:59:49.220Z,510.00
2023-04-18T02:00:49.284Z,506.00
2023-04-18T02:01:49.320Z,507.00
2023-04-18T02:02:49.493Z,505.00
2023-04-18T02:03:49.474Z,504.00
2023-04-18T02:04:49.471Z,511.00
2023-04-18T02:05:49.471Z,504.00
2023-04-18T02:06:49.525Z,508.00
2023-04-18T02:07:49.583Z,503.00
2023-04-18T02:08:49.600Z,506.00
2023-04-18T02:09:49.638Z,503.00
2023-04-18T02:10:49.654Z,503.00
2023-04-18T02:11:49.722Z,509.00
2023-04-18T02:12:49.769Z,507.00
2023-04-18T02:13:49.782Z,504.00
2023-04-18T02:14:49.818Z,507.00
2023-04-18T02:15:49.854Z,509.00
2023-04-18T02:16:49.951Z,509.00
2023-04-18T02:17:50.002Z,509.00
2023-04-18T02:18:49.973Z,503.00
2023-04-18T02:19:49.958Z,500.00
2023-04-18T02:20:49.982Z,500.00
2023-04-18T02:21:50.037Z,508.00
2023-04-18T02:22:50.063Z,505.00
2023-04-18T02:23:50.047Z,510.00
2023-04-18T02:24:50.070Z,512.00
2023-04-18T02:25:50.085Z,506.00
2023-04-18T02:26:50.105Z,511.00
2023-04-18T02:27:50.099Z,507.00
2023-04-18T02:28:50.080Z,509.00
2023-04-18T02:29:50.104Z,504.00
2023-04-18T02:30:50.129Z,505.00
2023-04-18T02:31:50.178Z,509.00
2023-04-18T02:32:50.161Z,506.00
2023-04-18T02:33:50.142Z,509.00
2023-04-18T02:34:50.123Z,503.00
2023-04-18T02:35:50.130Z,511.00
2023-04-18T02:36:50.122Z,509.00
2023-04-18T02:37:50.148Z,507.00
2023-04-18T02:38:50.142Z,508.00
2023-04-18T02:39:50.154Z,509.00
2023-04-18T02:40:50.215Z,510.00
2023-04-18T02:41:50.202Z,512.00
2023-04-18T02:42:50.293Z,517.00
2023-04-18T02:43:50.301Z,508.00
2023-04-18T02:44:50.308Z,509.00
2023-04-18T02:45:50.365Z,507.00
2023-04-18T02:46:50.400Z,510.00
2023-04-18T02:47:55.163Z,510.00
2023-04-18T02:48:51.416Z,510.00
2023-04-18T02:49:50.426Z,511.00
2023-04-18T02:50:50.390Z,510.00
2023-04-18T02:51:50.401Z,513.00
2023-04-18T02:52:50.420Z,512.00
2023-04-18T02:53:50.390Z,506.00
2023-04-18T02:54:50.414Z,508.00
2023-04-18T02:55:50.364Z,509.00
2023-04-18T02:56:50.378Z,512.00
2023-04-18T02:57:50.443Z,506.00
2023-04-18T02:58:50.468Z,506.00
2023-04-18T02:59:50.475Z,511.00
2023-04-18T03:00:51.322Z,509.00
2023-04-18T03:01:50.631Z,509.00
2023-04-18T03:02:50.762Z,506.00
2023-04-18T03:03:50.708Z,507.00
2023-04-18T03:04:50.920Z,506.00
2023-04-18T03:05:50.796Z,508.00
2023-04-18T03:06:50.869Z,508.00
2023-04-18T03:07:50.912Z,505.00
2023-04-18T03:08:50.976Z,506.00
2023-04-18T03:09:51.021Z,507.00
2023-04-18T03:10:51.131Z,506.00
2023-04-18T03:11:51.168Z,512.00
2023-04-18T03:12:51.225Z,509.00
2023-04-18T03:13:51.337Z,508.00
2023-04-18T03:14:52.345Z,508.00
2023-04-18T03:15:51.481Z,511.00
2023-04-18T03:16:53.855Z,503.00
2023-04-18T03:17:51.500Z,516.00
2023-04-18T03:18:51.441Z,512.00
2023-04-18T03:19:51.442Z,507.00
2023-04-18T03:20:51.463Z,505.00
2023-04-18T03:21:51.439Z,507.00
2023-04-18T03:22:51.436Z,506.00
2023-04-18T03:23:51.416Z,505.00
2023-04-18T03:24:51.440Z,506.00
2023-04-18T03:25:51.387Z,505.00
2023-04-18T03:26:51.385Z,508.00
2023-04-18T03:27:51.377Z,506.00
2023-04-18T03:28:51.361Z,507.00
2023-04-18T03:29:51.367Z,506.00
2023-04-18T03:30:51.388Z,507.00
2023-04-18T03:31:51.477Z,508.00
2023-04-18T03:32:51.439Z,507.00
2023-04-18T03:33:51.323Z,500.00
2023-04-18T03:34:51.354Z,507.00
2023-04-18T03:35:51.296Z,505.00
2023-04-18T03:36:51.302Z,507.00
2023-04-18T03:37:51.319Z,507.00
2023-04-18T03:38:51.291Z,503.00
2023-04-18T03:39:51.292Z,508.00
2023-04-18T03:40:51.282Z,506.00
2023-04-18T03:41:51.296Z,505.00
2023-04-18T03:42:51.350Z,506.00
2023-04-18T03:43:51.400Z,502.00
2023-04-18T03:44:51.416Z,503.00
2023-04-18T03:45:51.533Z,505.00
2023-04-18T03:46:51.582Z,508.00
2023-04-18T03:47:51.694Z,504.00
2023-04-18T03:48:51.700Z,506.00
2023-04-18T03:49:51.760Z,504.00
2023-04-18T03:50:51.813Z,505.00
2023-04-18T03:51:51.853Z,504.00
2023-04-18T03:52:51.934Z,504.00
2023-04-18T03:53:51.967Z,505.00
2023-04-18T03:54:52.052Z,508.00
2023-04-18T03:55:52.068Z,504.00
2023-04-18T03:56:52.094Z,501.00
2023-04-18T03:57:52.165Z,505.00
2023-04-18T03:58:52.213Z,508.00
2023-04-18T03:59:52.277Z,505.00
2023-04-18T04:00:52.354Z,505.00
2023-04-18T04:01:52.455Z,503.00
2023-04-18T04:02:52.553Z,506.00
2023-04-18T04:03:52.751Z,506.00
2023-04-18T04:04:52.556Z,509.00
2023-04-18T04:05:52.685Z,508.00
2023-04-18T04:06:52.636Z,507.00
2023-04-18T04:07:52.700Z,509.00
2023-04-18T04:08:52.754Z,508.00
2023-04-18T04:09:52.808Z,507.00
2023-04-18T04:10:52.806Z,506.00
2023-04-18T04:11:52.886Z,506.00
2023-04-18T04:12:52.904Z,506.00
2023-04-18T04:13:52.958Z,505.00
2023-04-18T04:14:53.054Z,505.00
2023-04-18T04:15:53.182Z,502.00
2023-04-18T04:16:53.180Z,508.00
2023-04-18T04:17:53.222Z,504.00
2023-04-18T04:18:53.231Z,504.00
2023-04-18T04:19:53.303Z,504.00
2023-04-18T04:20:53.317Z,503.00
2023-04-18T04:21:53.350Z,507.00
2023-04-18T04:22:53.424Z,502.00
2023-04-18T04:23:53.445Z,504.00
2023-04-18T04:24:53.554Z,503.00
2023-04-18T04:25:53.531Z,503.00
2023-04-18T04:26:53.596Z,503.00
2023-04-18T04:27:53.648Z,506.00
2023-04-18T04:28:53.673Z,504.00
2023-04-18T04:29:53.701Z,504.00
2023-04-18T04:30:53.748Z,506.00
2023-04-18T04:31:53.796Z,504.00
2023-04-18T04:32:53.890Z,507.00
2023-04-18T04:33:53.913Z,505.00
2023-04-18T04:34:53.922Z,507.00
2023-04-18T04:35:53.977Z,509.00
2023-04-18T04:36:54.011Z,507.00
2023-04-18T04:37:54.092Z,504.00
2023-04-18T04:38:54.144Z,505.00
2023-04-18T04:39:54.156Z,509.00
2023-04-18T04:40:54.208Z,510.00
2023-04-18T04:41:54.301Z,508.00
2023-04-18T04:42:54.309Z,506.00
2023-04-18T04:43:54.357Z,507.00
2023-04-18T04:44:54.421Z,507.00
2023-04-18T04:45:54.441Z,510.00
2023-04-18T04:46:54.529Z,506.00
2023-04-18T04:47:54.582Z,504.00
2023-04-18T04:48:54.550Z,508.00
2023-04-18T04:49:54.583Z,508.00
2023-04-18T04:50:54.647Z,508.00
2023-04-18T04:51:54.682Z,506.00
2023-04-18T04:52:54.706Z,503.00
2023-04-18T04:53:54.748Z,506.00
2023-04-18T04:54:54.802Z,507.00
2023-04-18T04:55:54.852Z,504.00
2023-04-18T04:56:54.894Z,505.00
2023-04-18T04:57:55.027Z,507.00
2023-04-18T04:58:54.965Z,507.00
2023-04-18T04:59:55.010Z,507.00
2023-04-18T05:00:55.233Z,509.00
2023-04-18T05:01:55.173Z,507.00
2023-04-18T05:02:55.358Z,511.00
2023-04-18T05:03:55.336Z,503.00
2023-04-18T05:04:55.278Z,509.00
2023-04-18T05:05:55.335Z,510.00
2023-04-18T05:06:55.352Z,506.00
2023-04-18T05:07:55.397Z,505.00
2023-04-18T05:08:55.446Z,506.00
2023-04-18T05:09:55.528Z,508.00
2023-04-18T05:10:55.567Z,506.00
2023-04-18T05:11:55.598Z,507.00
2023-04-18T05:12:55.653Z,507.00
2023-04-18T05:13:55.692Z,505.00
2023-04-18T05:14:55.759Z,506.00
2023-04-18T05:15:55.808Z,506.00
2023-04-18T05:16:55.912Z,503.00
2023-04-18T05:17:55.967Z,505.00
2023-04-18T05:18:55.978Z,502.00
2023-04-18T05:19:56.028Z,504.00
2023-04-18T05:20:56.070Z,507.00
2023-04-18T05:21:56.140Z,505.00
2023-04-18T05:22:56.237Z,505.00
2023-04-18T05:23:56.280Z,508.00
2023-04-18T05:24:56.299Z,508.00
2023-04-18T05:25:56.337Z,508.00
2023-04-18T05:26:56.414Z,506.00
2023-04-18T05:27:56.454Z,510.00
2023-04-18T05:28:56.530Z,509.00
2023-04-18T05:29:56.588Z,506.00
2023-04-18T05:30:56.691Z,505.00
2023-04-18T05:31:56.678Z,505.00
2023-04-18T05:32:56.745Z,502.00
2023-04-18T05:33:56.881Z,512.00
2023-04-18T05:34:56.849Z,508.00
2023-04-18T05:35:56.935Z,513.00
2023-04-18T05:36:56.966Z,500.00
2023-04-18T05:37:57.523Z,500.00
2023-04-18T05:38:57.108Z,505.00
2023-04-18T05:39:59.939Z,501.00
2023-04-18T05:40:57.147Z,509.00
2023-04-18T05:41:57.152Z,511.00
2023-04-18T05:42:57.089Z,511.00
2023-04-18T05:44:04.878Z,504.00
2023-04-18T05:44:58.149Z,505.00
2023-04-18T05:47:16.118Z,500.00
2023-04-18T05:48:15.900Z,500.00
2023-04-18T05:49:15.894Z,500.00
2023-04-18T05:50:15.873Z,500.00
2023-04-18T05:51:15.909Z,500.00
2023-04-18T05:52:15.908Z,520.00
2023-04-18T05:53:16.175Z,523.00
2023-04-18T05:54:16.211Z,530.00
2023-04-18T05:55:15.936Z,538.00
2023-04-18T05:56:15.928Z,551.00
2023-04-18T05:57:16.057Z,551.00
2023-04-18T05:58:16.122Z,559.00
2023-04-18T05:59:16.617Z,538.00
2023-04-18T06:00:16.189Z,552.00
2023-04-18T06:01:16.295Z,567.00
2023-04-18T06:02:17.411Z,558.00
2023-04-18T06:03:16.552Z,564.00
2023-04-18T06:04:17.242Z,576.00
2023-04-18T06:05:16.707Z,583.00
2023-04-18T06:06:16.457Z,587.00
2023-04-18T06:07:16.516Z,590.00
2023-04-18T06:08:16.559Z,594.00
2023-04-18T06:09:16.630Z,611.00
2023-04-18T06:10:16.688Z,619.00
2023-04-18T06:11:16.782Z,633.00
2023-04-18T06:12:16.799Z,651.00
2023-04-18T06:13:16.909Z,660.00
2023-04-18T06:14:16.996Z,676.00
2023-04-18T06:15:17.045Z,705.00
2023-04-18T06:16:17.084Z,718.00
2023-04-18T06:17:17.154Z,748.00
2023-04-18T06:18:17.230Z,758.00
2023-04-18T06:19:17.596Z,783.00
2023-04-18T06:20:17.284Z,804.00
2023-04-18T06:21:17.371Z,812.00
2023-04-18T06:22:17.432Z,827.00
2023-04-18T06:23:17.459Z,843.00
2023-04-18T06:24:17.547Z,835.00
2023-04-18T06:25:17.552Z,851.00
2023-04-18T06:26:17.600Z,870.00
2023-04-18T06:27:30.213Z,886.00
2023-04-18T06:28:18.645Z,887.00
2023-04-18T06:29:17.640Z,893.00
2023-04-18T06:30:17.687Z,904.00
2023-04-18T06:31:17.622Z,928.00
2023-04-18T06:32:17.609Z,965.00
2023-04-18T06:33:17.572Z,981.00
2023-04-18T06:34:17.603Z,1015.00
2023-04-18T06:35:17.667Z,1021.00
2023-04-18T06:36:17.588Z,1032.00
2023-04-18T06:37:17.607Z,1053.00
2023-04-18T06:38:17.538Z,1076.00
2023-04-18T06:39:17.633Z,1101.00
2023-04-18T06:40:17.571Z,1119.00
2023-04-18T06:41:17.545Z,1179.00
2023-04-18T06:42:17.703Z,1207.00
2023-04-18T06:43:17.543Z,1245.00
2023-04-18T06:44:17.597Z,1273.00
2023-04-18T06:45:17.497Z,1312.00
2023-04-18T06:46:17.536Z,1348.00
2023-04-18T06:47:17.519Z,1369.00
2023-04-18T06:48:17.518Z,1407.00
2023-04-18T06:49:17.550Z,1453.00
2023-04-18T06:50:17.520Z,1480.00
2023-04-18T06:51:17.559Z,1507.00
2023-04-18T06:52:17.552Z,1545.00
2023-04-18T06:53:17.636Z,1561.00
2023-04-18T06:54:17.653Z,1581.00
2023-04-18T06:55:17.658Z,1599.00
2023-04-18T06:56:17.645Z,1625.00
2023-04-18T06:57:17.656Z,1647.00
2023-04-18T06:58:17.699Z,1658.00
2023-04-18T06:59:18.130Z,1703.00
2023-04-18T07:00:17.698Z,1718.00
2023-04-18T07:01:18.543Z,1737.00
2023-04-18T07:02:17.720Z,1774.00
2023-04-18T07:03:17.883Z,1810.00
2023-04-18T07:04:17.903Z,1827.00
2023-04-18T07:05:18.609Z,1835.00
2023-04-18T07:06:17.701Z,1870.00
2023-04-18T07:07:17.731Z,1885.00
2023-04-18T07:08:17.779Z,1896.00
2023-04-18T07:09:17.884Z,1925.00
2023-04-18T07:10:17.925Z,1953.00
2023-04-18T07:11:17.922Z,1978.00
2023-04-18T07:12:17.943Z,2003.00
2023-04-18T07:13:18.029Z,2024.00
2023-04-18T07:14:18.038Z,2048.00
2023-04-18T07:15:18.213Z,2076.00
2023-04-18T07:16:18.130Z,2094.00
2023-04-18T07:17:18.241Z,2112.00
2023-04-18T07:18:30.271Z,2126.00
2023-04-18T07:19:19.254Z,2128.00
2023-04-18T07:20:18.227Z,2134.00
2023-04-18T07:21:18.214Z,2151.00
2023-04-18T07:22:18.185Z,2173.00
2023-04-18T07:23:18.212Z,2217.00
2023-04-18T07:24:18.203Z,2243.00
2023-04-18T07:25:18.169Z,2259.00
2023-04-18T07:26:18.176Z,2282.00
2023-04-18T07:27:18.211Z,2304.00
2023-04-18T07:28:18.276Z,2313.00
2023-04-18T07:29:18.397Z,2326.00
2023-04-18T07:30:18.360Z,2344.00
2023-04-18T07:31:18.744Z,2368.00
2023-04-18T07:32:18.628Z,2380.00
2023-04-18T07:33:18.601Z,2406.00
2023-04-18T07:34:18.635Z,2444.00
2023-04-18T07:35:18.693Z,2472.00
2023-04-18T07:36:18.756Z,2482.00
2023-04-18T07:37:18.804Z,2502.00
2023-04-18T07:38:18.853Z,2491.00
2023-04-18T07:39:19.155Z,2493.00
2023-04-18T07:40:18.999Z,2475.00
2023-04-18T07:41:19.031Z,2301.00
2023-04-18T07:42:19.033Z,2104.00
2023-04-18T07:43:20.805Z,1864.00
2023-04-18T07:44:19.094Z,1666.00
2023-04-18T07:45:19.092Z,1558.00
2023-04-18T07:46:19.150Z,1604.00
2023-04-18T07:47:22.340Z,1690.00
2023-04-18T07:48:19.118Z,1735.00
2023-04-18T07:49:19.104Z,1613.00
2023-04-18T07:50:19.133Z,1372.00
2023-04-18T07:51:19.139Z,1388.00
2023-04-18T07:52:19.134Z,1468.00
2023-04-18T07:53:19.082Z,1453.00
2023-04-18T07:54:19.082Z,1434.00
2023-04-18T07:55:19.238Z,1430.00
2023-04-18T07:56:19.063Z,1364.00
2023-04-18T07:57:19.069Z,1308.00
2023-04-18T07:58:19.032Z,1179.00
2023-04-18T07:59:19.094Z,1188.00
2023-04-18T08:00:19.084Z,1155.00
2023-04-18T08:01:19.009Z,996.00
2023-04-18T08:02:19.193Z,970.00
2023-04-18T08:03:19.398Z,1012.00
2023-04-18T08:04:19.198Z,779.00
2023-04-18T08:05:19.164Z,664.00
2023-04-18T08:06:18.982Z,700.00
2023-04-18T08:07:18.979Z,643.00
2023-04-18T08:08:18.952Z,714.00
2023-04-18T08:09:18.977Z,665.00
2023-04-18T08:10:18.989Z,675.00
2023-04-18T08:11:18.985Z,716.00
2023-04-18T08:12:19.121Z,760.00
2023-04-18T08:13:18.968Z,757.00
2023-04-18T08:14:19.082Z,764.00
2023-04-18T08:15:18.946Z,763.00
2023-04-18T08:16:19.000Z,691.00
2023-04-18T08:17:18.964Z,686.00
2023-04-18T08:18:18.923Z,713.00
2023-04-18T08:19:18.958Z,715.00
2023-04-18T08:20:18.921Z,718.00
2023-04-18T08:21:18.931Z,700.00
2023-04-18T08:22:18.915Z,686.00
2023-04-18T08:23:18.896Z,660.00
2023-04-18T08:24:18.888Z,671.00
2023-04-18T08:25:19.209Z,671.00
2023-04-18T08:26:18.853Z,688.00
2023-04-18T08:27:18.868Z,706.00
2023-04-18T08:28:18.869Z,745.00
2023-04-18T08:29:18.842Z,692.00
2023-04-18T08:30:18.837Z,667.00
2023-04-18T08:31:18.829Z,679.00
2023-04-18T08:32:18.856Z,728.00
2023-04-18T08:33:18.877Z,750.00
2023-04-18T08:34:18.823Z,720.00
2023-04-18T08:35:18.826Z,744.00
2023-04-18T08:36:18.852Z,688.00
2023-04-18T08:37:18.879Z,665.00
2023-04-18T08:38:18.889Z,708.00
2023-04-18T08:39:19.002Z,702.00
2023-04-18T08:40:19.737Z,700.00
2023-04-18T08:41:19.062Z,730.00
2023-04-18T08:42:19.094Z,698.00
2023-04-18T08:43:19.153Z,702.00
2023-04-18T08:44:19.178Z,691.00
2023-04-18T08:45:19.678Z,690.00
2023-04-18T08:46:19.296Z,667.00
2023-04-18T08:47:19.327Z,656.00
2023-04-18T08:48:19.343Z,661.00
2023-04-18T08:49:19.392Z,652.00
2023-04-18T08:50:19.713Z,652.00
2023-04-18T08:51:19.876Z,582.00
2023-04-18T08:52:19.519Z,400.00
2023-04-18T08:53:19.598Z,400.00
2023-04-18T08:54:19.610Z,400.00
2023-04-18T08:55:19.636Z,400.00
2023-04-18T08:56:19.685Z,446.00
2023-04-18T08:57:19.727Z,527.00
2023-04-18T08:58:19.758Z,552.00
2023-04-18T08:59:19.753Z,578.00
2023-04-18T09:00:20.223Z,650.00
2023-04-18T09:01:19.807Z,752.00
2023-04-18T09:02:19.845Z,801.00
2023-04-18T09:03:19.897Z,818.00
2023-04-18T09:04:19.860Z,864.00
2023-04-18T09:05:20.191Z,769.00
2023-04-18T09:06:19.911Z,659.00
2023-04-18T09:07:19.978Z,765.00
2023-04-18T09:08:20.004Z,936.00
2023-04-18T09:09:20.087Z,988.00
2023-04-18T09:10:20.158Z,967.00
2023-04-18T09:11:20.210Z,973.00
2023-04-18T09:12:21.254Z,1084.00
2023-04-18T09:13:20.313Z,1038.00
2023-04-18T09:14:20.377Z,886.00
2023-04-18T09:15:20.456Z,824.00
2023-04-18T09:16:20.521Z,965.00
2023-04-18T09:17:20.504Z,1050.00
2023-04-18T09:18:20.610Z,1112.00
2023-04-18T09:19:20.677Z,1138.00
2023-04-18T09:20:20.662Z,1049.00
2023-04-18T09:21:20.710Z,1049.00
2023-04-18T09:22:20.802Z,936.00
2023-04-18T09:23:20.867Z,1009.00
2023-04-18T09:24:21.013Z,1035.00
2023-04-18T09:25:20.950Z,1111.00
2023-04-18T09:26:20.959Z,1141.00
2023-04-18T09:27:21.018Z,1144.00
2023-04-18T09:28:21.163Z,1147.00
2023-04-18T09:29:21.074Z,1161.00
2023-04-18T09:30:21.150Z,1177.00
2023-04-18T09:31:21.225Z,1137.00
2023-04-18T09:32:21.213Z,1199.00
2023-04-18T09:33:21.226Z,1223.00
2023-04-18T09:34:21.224Z,1229.00
2023-04-18T09:35:21.707Z,1117.00
2023-04-18T09:36:21.361Z,1151.00
2023-04-18T09:37:21.346Z,1184.00
2023-04-18T09:38:21.339Z,1211.00
2023-04-18T09:39:21.626Z,1215.00
2023-04-18T09:40:21.598Z,1231.00
2023-04-18T09:41:21.731Z,1233.00
2023-04-18T09:42:21.605Z,1264.00
2023-04-18T09:43:21.522Z,1100.00
2023-04-18T09:44:21.554Z,1232.00
2023-04-18T09:45:21.716Z,1164.00
2023-04-18T09:46:21.726Z,1199.00
2023-04-18T09:47:21.679Z,1263.00
2023-04-18T09:48:21.704Z,1307.00
2023-04-18T09:49:21.742Z,1349.00
2023-04-18T09:50:21.761Z,1393.00
2023-04-18T09:51:21.817Z,1420.00
2023-04-18T09:52:21.856Z,1421.00
2023-04-18T09:53:21.931Z,1379.00
2023-04-18T09:54:21.898Z,1447.00
2023-04-18T09:55:22.201Z,1463.00
2023-04-18T09:56:21.988Z,1481.00
2023-04-18T09:57:22.015Z,1477.00
2023-04-18T09:58:21.995Z,1421.00
2023-04-18T09:59:22.074Z,1394.00
2023-04-18T10:00:22.138Z,1355.00
2023-04-18T10:01:22.152Z,1318.00
2023-04-18T10:02:22.284Z,1273.00
2023-04-18T10:03:22.324Z,1285.00
2023-04-18T10:04:22.284Z,1219.00
2023-04-18T10:05:22.341Z,1146.00
2023-04-18T10:06:22.365Z,1150.00
2023-04-18T10:07:22.432Z,1193.00
2023-04-18T10:08:22.435Z,1205.00
2023-04-18T10:09:22.518Z,1208.00
2023-04-18T10:10:22.726Z,1123.00
2023-04-18T10:11:22.669Z,1114.00
2023-04-18T10:12:22.717Z,979.00
2023-04-18T10:13:22.738Z,1007.00
2023-04-18T10:14:22.809Z,799.00
2023-04-18T10:15:23.205Z,720.00
2023-04-18T10:16:22.992Z,827.00
2023-04-18T10:17:23.001Z,943.00
2023-04-18T10:18:23.217Z,909.00
2023-04-18T10:19:23.153Z,922.00
2023-04-18T10:20:23.364Z,937.00
2023-04-18T10:21:23.297Z,830.00
2023-04-18T10:22:23.353Z,903.00
2023-04-18T10:23:23.463Z,664.00
2023-04-18T10:24:23.475Z,662.00
2023-04-18T10:25:23.743Z,639.00
2023-04-18T10:26:23.438Z,687.00
2023-04-18T10:27:23.498Z,740.00
2023-04-18T10:28:23.619Z,601.00
2023-04-18T10:29:23.666Z,641.00
2023-04-18T10:30:23.727Z,650.00
2023-04-18T10:31:24.292Z,629.00
2023-04-18T10:32:23.861Z,646.00
2023-04-18T10:33:30.386Z,671.00
2023-04-18T10:34:24.816Z,673.00
2023-04-18T10:35:24.275Z,676.00
2023-04-18T10:36:23.823Z,673.00
2023-04-18T10:37:23.786Z,681.00
2023-04-18T10:38:23.786Z,664.00
2023-04-18T10:39:23.806Z,675.00
2023-04-18T10:40:23.807Z,696.00
2023-04-18T10:41:24.241Z,756.00
2023-04-18T10:42:23.815Z,959.00
2023-04-18T10:43:23.808Z,882.00
2023-04-18T10:44:24.166Z,1084.00
2023-04-18T10:45:23.751Z,1196.00
2023-04-18T10:46:31.634Z,1244.00
2023-04-18T10:47:24.952Z,1247.00
2023-04-18T10:48:23.880Z,1265.00
2023-04-18T10:49:26.372Z,1309.00
2023-04-18T10:50:23.777Z,1396.00
2023-04-18T10:51:23.734Z,1492.00
2023-04-18T10:52:23.682Z,1490.00
2023-04-18T10:53:23.709Z,1535.00
2023-04-18T10:54:23.656Z,1527.00
2023-04-18T10:55:23.713Z,1511.00
2023-04-18T10:56:24.228Z,1552.00
2023-04-18T10:57:23.666Z,1556.00
2023-04-18T10:58:23.679Z,1390.00
2023-04-18T10:59:23.767Z,1413.00
2023-04-18T11:00:23.671Z,1500.00
2023-04-18T11:01:23.742Z,1394.00
2023-04-18T11:02:23.716Z,1375.00
2023-04-18T11:03:23.695Z,1467.00
2023-04-18T11:04:23.657Z,1517.00
2023-04-18T11:05:23.598Z,1548.00
2023-04-18T11:06:23.743Z,1561.00
2023-04-18T11:07:23.596Z,1557.00
2023-04-18T11:08:23.549Z,1555.00
2023-04-18T11:09:23.594Z,1637.00
2023-04-18T11:10:23.572Z,1633.00
2023-04-18T11:11:23.736Z,1617.00
2023-04-18T11:12:23.550Z,1662.00
2023-04-18T11:13:23.546Z,1664.00
2023-04-18T11:14:23.544Z,1656.00
2023-04-18T11:15:23.598Z,1655.00
2023-04-18T11:16:23.602Z,1683.00
2023-04-18T11:17:23.587Z,1651.00
2023-04-18T11:18:23.475Z,1655.00
2023-04-18T11:19:23.547Z,1689.00
2023-04-18T11:20:23.519Z,1723.00
2023-04-18T11:21:23.473Z,1700.00
2023-04-18T11:22:23.474Z,1714.00
2023-04-18T11:23:23.487Z,1599.00
2023-04-18T11:24:23.464Z,1548.00
2023-04-18T11:25:23.466Z,1638.00
2023-04-18T11:26:23.473Z,1676.00
2023-04-18T11:27:23.446Z,1598.00
2023-04-18T11:28:23.422Z,1670.00
2023-04-18T11:29:23.477Z,1572.00
2023-04-18T11:30:23.426Z,1552.00
2023-04-18T11:31:23.785Z,1653.00
2023-04-18T11:32:23.628Z,1736.00
2023-04-18T11:33:23.435Z,1825.00
2023-04-18T11:34:23.421Z,1861.00
2023-04-18T11:35:23.436Z,1914.00
2023-04-18T11:36:23.784Z,1956.00
2023-04-18T11:37:23.376Z,2009.00
2023-04-18T11:38:24.330Z,2046.00
2023-04-18T11:39:23.434Z,2080.00
2023-04-18T11:40:23.397Z,2096.00
2023-04-18T11:41:23.769Z,2092.00
2023-04-18T11:42:23.312Z,2100.00
2023-04-18T11:43:23.365Z,2111.00
2023-04-18T11:44:23.330Z,2134.00
2023-04-18T11:45:23.296Z,2143.00
2023-04-18T11:46:23.384Z,2142.00
2023-04-18T11:47:23.381Z,2145.00
2023-04-18T11:48:23.363Z,2151.00
2023-04-18T11:49:23.366Z,2158.00
2023-04-18T11:50:23.374Z,2145.00
2023-04-18T11:51:23.427Z,2167.00
2023-04-18T11:52:23.436Z,2160.00
2023-04-18T11:53:23.434Z,2178.00
2023-04-18T11:54:23.490Z,2158.00
2023-04-18T11:55:23.492Z,2151.00
2023-04-18T11:56:23.566Z,2144.00
2023-04-18T11:57:23.551Z,2151.00
2023-04-18T11:58:23.627Z,2155.00
2023-04-18T11:59:23.640Z,2153.00
2023-04-18T12:00:23.700Z,2145.00
2023-04-18T12:01:23.666Z,2149.00
2023-04-18T12:02:23.822Z,2131.00
2023-04-18T12:03:24.000Z,2139.00
2023-04-18T12:04:24.047Z,2113.00
2023-04-18T12:05:24.106Z,2115.00
2023-04-18T12:06:24.095Z,2111.00
2023-04-18T12:07:24.004Z,2111.00
2023-04-18T12:08:23.948Z,2110.00
2023-04-18T12:09:24.007Z,2108.00
2023-04-18T12:10:24.022Z,2103.00
2023-04-18T12:11:24.074Z,2099.00
2023-04-18T12:12:24.067Z,2096.00
2023-04-18T12:13:24.105Z,2093.00
2023-04-18T12:14:24.153Z,2083.00
2023-04-18T12:15:24.220Z,2083.00
2023-04-18T12:16:24.329Z,2057.00
2023-04-18T12:17:24.299Z,2026.00
2023-04-18T12:18:24.312Z,2037.00
2023-04-18T12:19:24.321Z,2032.00
2023-04-18T12:20:24.409Z,2044.00
2023-04-18T12:21:24.395Z,2051.00
2023-04-18T12:22:24.769Z,2048.00